WET,Max TemperatureF,Mean TemperatureF,Min TemperatureF,Max Dew PointF,MeanDew PointF,Min DewpointF,Max Humidity, Mean Humidity, Min Humidity, Max Sea Level PressureIn, Mean Sea Level PressureIn, Min Sea Level PressureIn, Max VisibilityMiles, Mean VisibilityMiles, Min VisibilityMiles, Max Wind SpeedMPH, Mean Wind SpeedMPH, Max Gust SpeedMPH,PrecipitationIn, CloudCover, Events, WindDirDegrees
2013-2-1,82,62,42,46,37,28,81,39,8,30.43,30.35,30.24,6,6,4,9,4,,0.00,,,311
2013-2-2,75,58,42,50,39,28,82,50,12,30.33,30.24,30.14,6,6,4,15,4,,0.00,3,,43
2013-2-3,68,56,45,49,41,21,82,58,12,30.23,30.15,30.05,6,6,6,16,10,,0.00,5,,55
2013-2-4,75,56,38,42,37,34,87,50,15,30.30,30.22,30.15,6,6,6,12,5,,0.00,,,256
2013-2-5,73,55,37,43,39,32,76,50,16,30.36,30.32,30.24,6,6,4,12,5,,0.00,,,254
2013-2-6,71,56,42,50,44,34,93,66,26,30.36,30.27,30.18,6,6,4,10,5,,0.00,1,,62
2013-2-7,67,54,41,46,40,34,100,67,27,30.28,30.19,30.11,6,4,1,12,7,,0.00,3,,69
2013-2-8,69,54,39,43,37,25,87,57,13,30.15,30.10,30.03,6,6,5,12,5,,0.00,,,59
2013-2-9,70,54,37,39,32,23,87,42,10,30.20,30.15,30.07,6,6,6,15,9,,0.00,,,71
2013-2-10,75,56,37,36,32,28,81,42,11,30.26,30.20,30.14,6,6,5,12,4,,0.00,,,237
2013-2-11,69,53,37,48,37,30,77,51,19,30.28,30.23,30.17,6,6,5,10,5,,0.00,2,,360
2013-2-12,69,56,42,48,43,37,93,64,21,30.27,30.22,30.14,6,6,6,13,8,,0.00,2,,61
2013-2-13,74,59,44,48,43,37,100,62,17,30.24,30.16,30.06,6,6,6,12,9,,0.00,3,,76
2013-2-14,81,62,42,45,40,34,87,43,15,30.17,30.12,30.03,6,6,4,7,4,,0.00,1,,137
2013-2-15,81,62,44,41,35,27,71,38,7,30.18,30.12,30.03,6,6,3,12,4,,0.00,1,,264
2013-2-16,81,62,44,37,32,25,71,35,7,30.17,30.11,29.99,6,6,4,12,4,,0.00,1,,117
2013-2-17,79,64,48,43,34,26,59,37,7,30.12,30.06,29.97,6,6,4,10,5,22,0.00,5,,257
2013-2-18,72,60,47,49,39,30,77,50,15,30.05,29.91,29.79,6,6,2,17,4,26,0.00,5,Rain,173
2013-2-19,58,53,48,50,48,45,100,86,67,30.01,29.88,29.80,6,6,3,14,6,,0.24,4,Rain,248
2013-2-20,66,54,42,48,44,41,100,73,33,30.12,30.04,29.98,6,6,3,7,2,,0.00,3,Rain,239
2013-2-21,71,56,42,54,48,42,100,74,38,30.18,30.12,30.06,6,6,5,10,3,,0.00,4,,262
2013-2-22,72,61,50,53,50,45,100,71,31,30.15,30.08,29.99,6,6,6,17,6,,0.00,3,,243
2013-2-23,69,60,51,54,48,37,100,71,22,30.21,30.13,30.06,6,6,6,14,6,,0.00,4,Rain,282
2013-2-24,69,58,46,48,45,39,100,67,28,30.22,30.16,30.08,6,6,5,13,7,,0.00,3,,63
2013-2-25,75,58,41,46,41,34,100,60,13,30.18,30.05,29.92,6,5,4,12,8,,0.00,,,72
2013-2-26,81,61,41,45,39,28,93,50,11,29.98,29.87,29.73,6,6,4,12,6,,0.00,5,,61
2013-2-27,72,60,48,52,48,41,100,73,46,29.92,29.86,29.83,6,4,2,9,6,,0.00,6,,250
2013-2-28,64,56,48,48,41,36,88,61,31,30.06,29.98,29.92,6,6,4,12,5,,0.00,5,,316